Latest Coastal Weather Observations for Spring Bay

IDT60701

Issued at 5:55 pm EST Friday 22 August 2014 (issued every 10 minutes, with the page automatically refreshed every 10 minutes)

About coastal observations | Map of coastal stations | Coastal observations for TAS | Marine services | Other Formats
Station Details ID: 092133 Name: SPRING BAY NTC AWS Lat: -42.55 Lon: 147.93 Height: 0.0 m
Data from the previous 72 hours. | See also: Recent months for locations in Tasmania
Date/Time
EST
Temp

°C
Wind Pressure Rain
since 9am
mm
Weather Cloud Vis
km
Sea
Height
m
Swell
Dir
 
Speed
knots
Gust
knots
hPa Trend Height
m
Period
s
Dir
22/05:30pm 12.8 N 14 21 1031.2 - - - - - - - - -
22/05:00pm 13.1 N 14 22 1030.9 - - - - - - - - -
22/04:30pm 13.8 N 12 19 1030.7 - - - - - - - - -
22/04:00pm 14.1 N 11 18 1030.6 - - - - - - - - -
22/03:30pm 14.3 N 11 21 1030.6 - - - - - - - - -
22/03:00pm 14.7 N 9 18 1030.7 - - - - - - - - -
22/02:30pm 14.7 N 12 20 1031.0 - - - - - - - - -
22/02:00pm 14.8 NNE 11 18 1031.1 - - - - - - - - -
22/01:30pm 15.1 N 10 19 1031.3 - - - - - - - - -
22/01:00pm 14.9 N 11 19 1031.5 - - - - - - - - -
22/12:30pm 14.9 NNE 11 17 1031.9 - - - - - - - - -
22/12:00pm 14.6 NNE 11 17 1032.4 - - - - - - - - -
22/11:30am 14.2 N 8 13 1032.8 - - - - - - - - -
22/11:00am 13.8 NNE 9 14 1033.1 - - - - - - - - -
22/10:30am 13.7 N 8 16 1033.3 - - - - - - - - -
22/10:00am 10.6 SE 3 4 1033.6 - - - - - - - - -
22/09:30am 9.6 SW 1 3 1033.8 - - - - - - - - -
22/09:00am 9.1 NW 3 5 1033.9 - - - - - - - - -
22/08:30am 7.0 NNW 3 5 1034.1 - - - - - - - - -
22/08:00am 6.4 NNW 3 5 1034.1 - - - - - - - - -
22/07:30am 6.0 NW 3 5 1034.0 - - - - - - - - -
22/07:00am 6.2 WNW 2 3 1033.8 - - - - - - - - -
22/06:30am 5.8 NW 4 5 1033.5 - - - - - - - - -
22/06:00am 5.6 NW 5 7 1033.4 - - - - - - - - -
22/05:30am 5.3 NW 4 5 1033.3 - - - - - - - - -
22/05:00am 5.7 NW 2 4 1033.1 - - - - - - - - -
22/04:30am 5.8 W 2 4 1033.0 - - - - - - - - -
22/04:00am 5.7 WNW 3 5 1032.8 - - - - - - - - -
22/03:30am 5.8 NW 3 4 1032.7 - - - - - - - - -
22/03:00am 5.9 WSW 2 5 1032.7 - - - - - - - - -
22/02:30am 6.9 NW 3 4 1032.8 - - - - - - - - -
22/02:00am 6.6 WSW 1 3 1033.0 - - - - - - - - -
22/01:30am 7.0 WNW 3 5 1033.2 - - - - - - - - -
22/01:00am 7.1 NW 4 4 1033.2 - - - - - - - - -
22/12:30am 7.0 NW 4 5 1033.3 - - - - - - - - -
22/12:00am 7.6 NNW 4 6 1033.4 - - - - - - - - -
 
Date/Time
EST
Temp

°C
Wind Pressure Rain
since 9am
mm
Weather Cloud Vis
km
Sea
Height
m
Swell
Dir
 
Speed
knots
Gust
knots
hPa Trend Height
m
Period
s
Dir
21/11:30pm 8.3 NNW 3 4 1033.4 - - - - - - - - -
21/11:00pm 9.4 NNW 2 3 1033.3 - - - - - - - - -
21/10:30pm 10.4 N 3 7 1033.3 - - - - - - - - -
21/10:00pm 10.4 N 3 6 1033.4 - - - - - - - - -
21/09:30pm 11.1 N 3 5 1033.4 - - - - - - - - -
21/09:00pm 11.7 N 4 7 1033.4 - - - - - - - - -
21/08:30pm 11.5 N 5 9 1033.3 - - - - - - - - -
21/08:00pm 11.2 N 4 5 1033.2 - - - - - - - - -
21/07:30pm 10.8 N 4 6 1033.0 - - - - - - - - -
21/07:00pm 11.2 N 5 5 1032.9 - - - - - - - - -
21/06:30pm 11.5 N 5 9 1032.6 - - - - - - - - -
21/06:00pm 11.6 NNE 3 7 1032.4 - - - - - - - - -
21/05:30pm 12.0 N 3 6 1032.1 - - - - - - - - -
21/05:00pm 12.4 NNE 5 7 1032.0 - - - - - - - - -
21/04:30pm 12.6 NNE 6 10 1031.8 - - - - - - - - -
21/04:00pm 12.9 NNE 6 10 1031.7 - - - - - - - - -
21/03:30pm 12.8 NE 8 12 1031.5 - - - - - - - - -
21/03:00pm 12.8 NE 10 14 1031.3 - - - - - - - - -
21/02:30pm 12.8 NE 9 13 1031.3 - - - - - - - - -
21/02:00pm 13.0 NE 9 14 1031.3 - - - - - - - - -
21/01:30pm 13.0 NE 11 14 1031.5 - - - - - - - - -
21/01:00pm 13.3 NE 9 13 1031.7 - - - - - - - - -
21/12:30pm 13.6 NE 8 12 1031.8 - - - - - - - - -
21/12:00pm 13.5 ESE 4 7 1032.1 - - - - - - - - -
21/11:30am 13.6 E 4 8 1032.5 - - - - - - - - -
21/11:00am 13.4 NNW 5 9 1032.9 - - - - - - - - -
21/10:30am 13.9 NW 4 8 1033.0 - - - - - - - - -
21/10:00am 12.8 WSW 2 4 1033.1 - - - - - - - - -
21/09:30am 12.2 SW 1 3 1033.3 - - - - - - - - -
21/09:00am 11.0 W 1 3 1033.2 - - - - - - - - -
21/08:30am 8.1 NW 3 4 1033.2 - - - - - - - - -
21/08:00am 7.8 W 3 4 1033.1 - - - - - - - - -
21/07:30am 8.1 W 2 3 1032.6 - - - - - - - - -
21/07:00am 8.1 W 2 4 1032.2 - - - - - - - - -
21/06:30am 8.0 WSW 4 6 1031.8 - - - - - - - - -
21/06:00am 8.1 W 3 4 1031.5 - - - - - - - - -
21/05:30am 8.2 WNW 3 5 1031.3 - - - - - - - - -
21/05:00am 8.3 NW 3 5 1031.2 - - - - - - - - -
21/04:30am 8.3 W 3 5 1031.0 - - - - - - - - -
21/04:00am 8.3 WNW 3 4 1030.7 - - - - - - - - -
21/03:30am 7.9 NW 3 4 1030.6 - - - - - - - - -
21/03:00am 8.1 W 3 5 1030.4 - - - - - - - - -
21/02:30am 7.8 WSW 3 7 1030.4 - - - - - - - - -
21/02:00am 7.7 WNW 2 4 1030.6 - - - - - - - - -
21/01:30am 7.5 NW 3 4 1030.6 - - - - - - - - -
21/01:00am 7.4 NW 3 5 1030.6 - - - - - - - - -
21/12:30am 7.5 WNW 2 4 1030.7 - - - - - - - - -
21/12:00am 7.4 WNW 3 4 1030.7 - - - - - - - - -
 
Date/Time
EST
Temp

°C
Wind Pressure Rain
since 9am
mm
Weather Cloud Vis
km
Sea
Height
m
Swell
Dir
 
Speed
knots
Gust
knots
hPa Trend Height
m
Period
s
Dir
20/11:30pm 7.0 NW 5 6 1030.4 - - - - - - - - -
20/11:00pm 6.7 NW 5 6 1030.3 - - - - - - - - -
20/10:30pm 6.5 NW 3 6 1030.3 - - - - - - - - -
20/10:00pm 6.2 NW 4 5 1030.2 - - - - - - - - -
20/09:30pm 6.3 NNW 4 5 1030.1 - - - - - - - - -
20/09:00pm 6.8 NW 4 5 1029.8 - - - - - - - - -
20/08:30pm 7.6 NNW 4 5 1029.6 - - - - - - - - -
20/08:00pm 7.7 NW 5 5 1029.3 - - - - - - - - -
20/07:30pm 8.4 NNW 5 6 1029.0 - - - - - - - - -
20/07:00pm 9.0 NNW 6 7 1028.7 - - - - - - - - -
20/06:30pm 9.7 NNE 3 7 1028.4 - - - - - - - - -
20/06:00pm 10.7 SE 6 8 1028.0 - - - - - - - - -
20/05:30pm 11.8 ESE 7 12 1027.6 - - - - - - - - -
20/05:00pm 12.6 SE 11 12 1027.2 - - - - - - - - -
20/04:30pm 12.8 SE 12 13 1026.9 - - - - - - - - -
20/04:00pm 12.9 SE 13 14 1026.7 - - - - - - - - -
20/03:30pm 12.5 SE 14 15 1026.4 - - - - - - - - -
20/03:00pm 13.0 SE 14 15 1026.3 - - - - - - - - -
20/02:30pm 13.0 ESE 11 13 1026.3 - - - - - - - - -
20/02:00pm 12.6 SE 12 13 1026.1 - - - - - - - - -
20/01:30pm 12.8 ESE 10 12 1025.9 - - - - - - - - -
20/01:00pm 12.7 ESE 7 10 1026.0 - - - - - - - - -
20/12:30pm 14.3 SSE 1 2 1026.1 - - - - - - - - -
20/12:00pm 12.6 SW 7 11 1026.2 - - - - - - - - -
20/11:30am 12.3 SW 8 11 1026.5 - - - - - - - - -
20/11:00am 11.3 WSW 9 13 1026.6 - - - - - - - - -
20/10:30am 10.4 WSW 9 11 1026.6 - - - - - - - - -
20/10:00am 9.7 SW 10 12 1026.4 - - - - - - - - -
20/09:30am 9.0 SW 10 13 1026.2 - - - - - - - - -
20/09:00am 7.6 SW 9 12 1026.0 - - - - - - - - -
20/08:30am 6.8 WSW 10 14 1025.8 - - - - - - - - -
20/08:00am 6.9 SW 11 14 1025.6 - - - - - - - - -
20/07:30am 6.2 SW 12 14 1025.3 - - - - - - - - -
20/07:00am 6.3 SW 12 15 1024.9 - - - - - - - - -
20/06:30am 5.4 SW 12 13 1024.7 - - - - - - - - -
20/06:00am 6.1 SW 13 15 1024.4 - - - - - - - - -
20/05:30am 6.1 SW 10 13 1024.2 - - - - - - - - -
20/05:00am 6.7 WSW 11 15 1024.2 - - - - - - - - -
20/04:30am 6.7 SW 10 12 1024.1 - - - - - - - - -
20/04:00am 6.9 SW 13 15 1024.0 - - - - - - - - -

Other Formats:

Comma delimited format used in spreadsheet applications
http://www.bom.gov.au/fwo/IDT60701/IDT60701.95987.axf

JavaScript Object Notation format (JSON) in row-major order
http://www.bom.gov.au/fwo/IDT60701/IDT60701.95987.json